sensor_id;sensor_type;location;lat;lon;timestamp;pressure;altitude;pressure_sealevel;temperature;humidity
30724;BME280;17473;52.286;20.930;2022-07-10T00:00:52;100179.34;;;16.63;70.46
30724;BME280;17473;52.286;20.930;2022-07-10T00:03:20;100180.22;;;16.64;70.42
30724;BME280;17473;52.286;20.930;2022-07-10T00:05:47;100183.81;;;16.70;70.66
30724;BME280;17473;52.286;20.930;2022-07-10T00:08:16;100189.16;;;16.73;70.41
30724;BME280;17473;52.286;20.930;2022-07-10T00:10:43;100185.50;;;16.59;71.05
30724;BME280;17473;52.286;20.930;2022-07-10T00:13:10;100183.75;;;16.61;70.91
30724;BME280;17473;52.286;20.930;2022-07-10T00:15:37;100176.69;;;16.69;70.65
30724;BME280;17473;52.286;20.930;2022-07-10T00:18:04;100171.31;;;16.58;71.17
30724;BME280;17473;52.286;20.930;2022-07-10T00:20:31;100184.69;;;16.66;71.00
30724;BME280;17473;52.286;20.930;2022-07-10T00:22:58;100175.72;;;16.53;71.60
30724;BME280;17473;52.286;20.930;2022-07-10T00:25:28;100184.66;;;16.62;71.40
30724;BME280;17473;52.286;20.930;2022-07-10T00:27:57;100166.81;;;16.47;71.79
30724;BME280;17473;52.286;20.930;2022-07-10T00:30:24;100173.97;;;16.57;71.84
30724;BME280;17473;52.286;20.930;2022-07-10T00:32:51;100169.50;;;16.54;72.11
30724;BME280;17473;52.286;20.930;2022-07-10T00:35:18;100172.19;;;16.59;72.31
30724;BME280;17473;52.286;20.930;2022-07-10T00:37:45;100161.56;;;16.62;72.10
30724;BME280;17473;52.286;20.930;2022-07-10T00:40:12;100163.31;;;16.58;72.16
30724;BME280;17473;52.286;20.930;2022-07-10T00:42:39;100163.31;;;16.58;72.42
30724;BME280;17473;52.286;20.930;2022-07-10T00:45:07;100163.31;;;16.57;72.28
30724;BME280;17473;52.286;20.930;2022-07-10T00:47:35;100158.84;;;16.53;72.67
30724;BME280;17473;52.286;20.930;2022-07-10T00:50:02;100144.53;;;16.35;72.98
30724;BME280;17473;52.286;20.930;2022-07-10T00:52:30;100151.63;;;16.36;73.15
30724;BME280;17473;52.286;20.930;2022-07-10T00:54:57;100149.88;;;16.38;73.19
30724;BME280;17473;52.286;20.930;2022-07-10T00:57:24;100151.63;;;16.35;73.53
30724;BME280;17473;52.286;20.930;2022-07-10T00:59:52;100150.72;;;16.34;73.47
30724;BME280;17473;52.286;20.930;2022-07-10T01:02:19;100150.63;;;16.19;74.18
30724;BME280;17473;52.286;20.930;2022-07-10T01:04:47;100151.47;;;16.13;74.54
30724;BME280;17473;52.286;20.930;2022-07-10T01:07:14;100155.03;;;16.15;74.74
30724;BME280;17473;52.286;20.930;2022-07-10T01:09:43;100147.09;;;16.20;74.49
30724;BME280;17473;52.286;20.930;2022-07-10T01:12:11;100137.28;;;16.13;74.74
30724;BME280;17473;52.286;20.930;2022-07-10T01:14:39;100143.47;;;16.13;74.89
30724;BME280;17473;52.286;20.930;2022-07-10T01:17:11;100138.16;;;16.11;74.96
30724;BME280;17473;52.286;20.930;2022-07-10T01:19:39;100136.34;;;16.06;75.73
30724;BME280;17473;52.286;20.930;2022-07-10T01:22:06;100138.97;;;16.00;75.87
30724;BME280;17473;52.286;20.930;2022-07-10T01:24:33;100130.97;;;16.03;75.89
30724;BME280;17473;52.286;20.930;2022-07-10T01:27:01;100128.34;;;16.04;75.99
30724;BME280;17473;52.286;20.930;2022-07-10T01:29:29;100128.31;;;16.01;76.25
30724;BME280;17473;52.286;20.930;2022-07-10T01:31:56;100129.28;;;16.16;75.61
30724;BME280;17473;52.286;20.930;2022-07-10T01:34:26;100129.22;;;16.06;75.92
30724;BME280;17473;52.286;20.930;2022-07-10T01:36:54;100119.47;;;16.10;75.79
30724;BME280;17473;52.286;20.930;2022-07-10T01:39:21;100120.41;;;16.17;75.61
30724;BME280;17473;52.286;20.930;2022-07-10T01:41:48;100123.09;;;16.18;75.85
30724;BME280;17473;52.286;20.930;2022-07-10T01:44:15;100114.22;;;16.18;75.60
30724;BME280;17473;52.286;20.930;2022-07-10T01:46:46;100108.88;;;16.18;75.50
30724;BME280;17473;52.286;20.930;2022-07-10T01:49:15;100115.97;;;16.13;75.93
30724;BME280;17473;52.286;20.930;2022-07-10T01:51:42;100115.03;;;16.06;76.14
30724;BME280;17473;52.286;20.930;2022-07-10T01:54:10;100103.44;;;16.01;76.55
30724;BME280;17473;52.286;20.930;2022-07-10T01:56:37;100109.59;;;15.90;76.83
30724;BME280;17473;52.286;20.930;2022-07-10T01:59:05;100109.63;;;15.95;76.77
30724;BME280;17473;52.286;20.930;2022-07-10T02:01:32;100102.59;;;16.03;76.60
30724;BME280;17473;52.286;20.930;2022-07-10T02:03:59;100106.97;;;15.95;76.85
30724;BME280;17473;52.286;20.930;2022-07-10T02:06:45;100106.91;;;15.87;77.24
30724;BME280;17473;52.286;20.930;2022-07-10T02:09:12;100107.66;;;15.78;77.61
30724;BME280;17473;52.286;20.930;2022-07-10T02:11:41;100103.34;;;15.84;77.60
30724;BME280;17473;52.286;20.930;2022-07-10T02:14:08;100098.03;;;15.90;77.19
30724;BME280;17473;52.286;20.930;2022-07-10T02:16:35;100099.94;;;16.03;76.73
30724;BME280;17473;52.286;20.930;2022-07-10T02:19:03;100088.16;;;15.78;77.49
30724;BME280;17473;52.286;20.930;2022-07-10T02:21:30;100094.38;;;15.78;77.34
30724;BME280;17473;52.286;20.930;2022-07-10T02:23:57;100099.88;;;15.95;76.99
30724;BME280;17473;52.286;20.930;2022-07-10T02:26:24;100103.34;;;15.84;77.50
30724;BME280;17473;52.286;20.930;2022-07-10T02:28:51;100100.59;;;15.79;77.74
30724;BME280;17473;52.286;20.930;2022-07-10T02:31:18;100110.44;;;15.85;77.72
30724;BME280;17473;52.286;20.930;2022-07-10T02:33:46;100098.78;;;15.75;78.35
30724;BME280;17473;52.286;20.930;2022-07-10T02:36:13;100104.97;;;15.71;78.57
30724;BME280;17473;52.286;20.930;2022-07-10T02:38:40;100100.66;;;15.85;77.65
30724;BME280;17473;52.286;20.930;2022-07-10T02:41:07;100093.50;;;15.76;77.88
30724;BME280;17473;52.286;20.930;2022-07-10T02:43:34;100094.47;;;15.86;77.43
30724;BME280;17473;52.286;20.930;2022-07-10T02:46:02;100102.47;;;15.85;77.70
30724;BME280;17473;52.286;20.930;2022-07-10T02:48:29;100092.56;;;15.74;78.02
30724;BME280;17473;52.286;20.930;2022-07-10T02:50:56;100094.31;;;15.74;78.14
30724;BME280;17473;52.286;20.930;2022-07-10T02:53:23;100090.94;;;15.89;77.40
30724;BME280;17473;52.286;20.930;2022-07-10T02:55:50;100083.81;;;15.86;77.55
30724;BME280;17473;52.286;20.930;2022-07-10T02:58:17;100083.00;;;15.96;77.18
30724;BME280;17473;52.286;20.930;2022-07-10T03:00:46;100083.94;;;15.99;77.18
30724;BME280;17473;52.286;20.930;2022-07-10T03:03:13;100088.38;;;16.03;76.58
30724;BME280;17473;52.286;20.930;2022-07-10T03:05:40;100085.81;;;16.14;76.49
30724;BME280;17473;52.286;20.930;2022-07-10T03:08:07;100079.56;;;16.15;76.43
30724;BME280;17473;52.286;20.930;2022-07-10T03:10:35;100084.84;;;16.05;76.89
30724;BME280;17473;52.286;20.930;2022-07-10T03:13:02;100079.50;;;16.02;77.04
30724;BME280;17473;52.286;20.930;2022-07-10T03:15:29;100067.13;;;16.12;76.33
30724;BME280;17473;52.286;20.930;2022-07-10T03:17:56;100083.16;;;16.23;76.09
30724;BME280;17473;52.286;20.930;2022-07-10T03:20:24;100085.88;;;16.31;75.73
30724;BME280;17473;52.286;20.930;2022-07-10T03:22:51;100086.75;;;16.28;75.91
30724;BME280;17473;52.286;20.930;2022-07-10T03:25:18;100087.69;;;16.36;75.82
30724;BME280;17473;52.286;20.930;2022-07-10T03:27:45;100085.97;;;16.43;75.30
30724;BME280;17473;52.286;20.930;2022-07-10T03:30:12;100092.19;;;16.50;74.88
30724;BME280;17473;52.286;20.930;2022-07-10T03:32:39;100094.97;;;16.71;73.96
30724;BME280;17473;52.286;20.930;2022-07-10T03:35:06;100088.81;;;16.91;73.10
30724;BME280;17473;52.286;20.930;2022-07-10T03:37:33;100091.56;;;17.11;72.36
30724;BME280;17473;52.286;20.930;2022-07-10T03:40:00;100085.38;;;17.37;71.41
30724;BME280;17473;52.286;20.930;2022-07-10T03:42:27;100076.50;;;17.52;70.56
30724;BME280;17473;52.286;20.930;2022-07-10T03:44:54;100076.50;;;17.66;70.11
30724;BME280;17473;52.286;20.930;2022-07-10T03:47:21;100065.50;;;18.91;65.30
30724;BME280;17473;52.286;20.930;2022-07-10T03:49:48;100070.28;;;19.75;61.81
30724;BME280;17473;52.286;20.930;2022-07-10T03:52:16;100080.19;;;19.67;61.03
30724;BME280;17473;52.286;20.930;2022-07-10T03:54:43;100077.09;;;18.92;63.82
30724;BME280;17473;52.286;20.930;2022-07-10T03:57:10;100081.72;;;18.53;65.35
30724;BME280;17473;52.286;20.930;2022-07-10T03:59:55;100084.47;;;18.28;66.40
30724;BME280;17473;52.286;20.930;2022-07-10T04:02:22;100089.25;;;19.47;62.57
30724;BME280;17473;52.286;20.930;2022-07-10T04:04:49;100092.13;;;20.27;59.79
30724;BME280;17473;52.286;20.930;2022-07-10T04:07:17;100079.81;;;21.51;55.93
30724;BME280;17473;52.286;20.930;2022-07-10T04:09:44;100080.50;;;22.15;53.11
30724;BME280;17473;52.286;20.930;2022-07-10T04:12:11;100081.94;;;22.79;50.78
30724;BME280;17473;52.286;20.930;2022-07-10T04:14:38;100088.50;;;23.85;47.97
30724;BME280;17473;52.286;20.930;2022-07-10T04:17:05;100081.16;;;25.76;43.60
30724;BME280;17473;52.286;20.930;2022-07-10T04:19:32;100082.41;;;27.38;40.12
30724;BME280;17473;52.286;20.930;2022-07-10T04:21:59;100077.66;;;25.99;42.51
30724;BME280;17473;52.286;20.930;2022-07-10T04:24:26;100090.53;;;25.06;44.18
30724;BME280;17473;52.286;20.930;2022-07-10T04:26:53;100085.34;;;25.85;42.76
30724;BME280;17473;52.286;20.930;2022-07-10T04:29:20;100077.00;;;28.45;37.41
30724;BME280;17473;52.286;20.930;2022-07-10T04:31:47;100087.06;;;28.22;38.02
30724;BME280;17473;52.286;20.930;2022-07-10T04:34:14;100090.06;;;27.93;37.94
30724;BME280;17473;52.286;20.930;2022-07-10T04:36:41;100072.25;;;30.19;34.09
30724;BME280;17473;52.286;20.930;2022-07-10T04:39:08;100077.72;;;30.86;32.89
30724;BME280;17473;52.286;20.930;2022-07-10T04:41:35;100077.50;;;30.22;33.17
30724;BME280;17473;52.286;20.930;2022-07-10T04:44:02;100083.94;;;27.45;37.77
30724;BME280;17473;52.286;20.930;2022-07-10T04:46:29;100076.75;;;25.45;41.43
30724;BME280;17473;52.286;20.930;2022-07-10T04:48:56;100076.84;;;27.19;38.43
30724;BME280;17473;52.286;20.930;2022-07-10T04:51:23;100070.97;;;31.57;31.50
30724;BME280;17473;52.286;20.930;2022-07-10T04:53:50;100078.59;;;31.82;30.27
30724;BME280;17473;52.286;20.930;2022-07-10T04:56:17;100072.38;;;30.33;33.11
30724;BME280;17473;52.286;20.930;2022-07-10T04:58:44;100066.50;;;32.76;29.21
30724;BME280;17473;52.286;20.930;2022-07-10T05:01:19;100058.81;;;35.35;25.53
30724;BME280;17473;52.286;20.930;2022-07-10T05:03:46;100051.78;;;34.80;26.08
30724;BME280;17473;52.286;20.930;2022-07-10T05:06:13;100053.91;;;34.64;26.35
30724;BME280;17473;52.286;20.930;2022-07-10T05:08:40;100053.25;;;34.47;26.08
30724;BME280;17473;52.286;20.930;2022-07-10T05:11:08;100051.06;;;34.40;25.85
30724;BME280;17473;52.286;20.930;2022-07-10T05:13:35;100055.44;;;34.55;25.78
30724;BME280;17473;52.286;20.930;2022-07-10T05:16:03;100048.72;;;31.49;29.21
30724;BME280;17473;52.286;20.930;2022-07-10T05:18:31;100058.50;;;28.73;33.35
30724;BME280;17473;52.286;20.930;2022-07-10T05:20:58;100048.63;;;27.25;35.79
30724;BME280;17473;52.286;20.930;2022-07-10T05:23:25;100050.63;;;25.98;38.01
30724;BME280;17473;52.286;20.930;2022-07-10T05:25:52;100053.06;;;25.25;39.18
30724;BME280;17473;52.286;20.930;2022-07-10T05:28:19;100054.53;;;24.12;41.27
30724;BME280;17473;52.286;20.930;2022-07-10T05:30:46;100048.69;;;23.96;41.68
30724;BME280;17473;52.286;20.930;2022-07-10T05:33:13;100051.41;;;23.95;41.93
30724;BME280;17473;52.286;20.930;2022-07-10T05:35:40;100040.84;;;23.85;42.40
30724;BME280;17473;52.286;20.930;2022-07-10T05:38:07;100052.00;;;24.39;41.72
30724;BME280;17473;52.286;20.930;2022-07-10T05:40:34;100044.41;;;26.70;37.50
30724;BME280;17473;52.286;20.930;2022-07-10T05:43:02;100041.81;;;28.62;33.98
30724;BME280;17473;52.286;20.930;2022-07-10T05:45:29;100046.84;;;28.32;34.11
30724;BME280;17473;52.286;20.930;2022-07-10T05:47:56;100054.16;;;27.22;35.89
30724;BME280;17473;52.286;20.930;2022-07-10T05:50:23;100045.38;;;26.20;37.30
30724;BME280;17473;52.286;20.930;2022-07-10T05:52:50;100047.56;;;25.28;39.00
30724;BME280;17473;52.286;20.930;2022-07-10T05:55:17;100054.00;;;24.95;39.87
30724;BME280;17473;52.286;20.930;2022-07-10T05:57:44;100038.66;;;25.53;39.19
30724;BME280;17473;52.286;20.930;2022-07-10T06:00:12;100042.44;;;26.99;36.65
30724;BME280;17473;52.286;20.930;2022-07-10T06:02:39;100039.09;;;30.10;31.92
30724;BME280;17473;52.286;20.930;2022-07-10T06:05:06;100047.31;;;28.61;33.55
30724;BME280;17473;52.286;20.930;2022-07-10T06:07:34;100045.06;;;27.00;36.34
30724;BME280;17473;52.286;20.930;2022-07-10T06:10:02;100045.06;;;26.02;38.18
30724;BME280;17473;52.286;20.930;2022-07-10T06:12:30;100050.09;;;25.88;37.98
30724;BME280;17473;52.286;20.930;2022-07-10T06:14:57;100050.25;;;25.56;39.25
30724;BME280;17473;52.286;20.930;2022-07-10T06:17:25;100035.72;;;26.13;38.73
30724;BME280;17473;52.286;20.930;2022-07-10T06:19:52;100036.13;;;25.75;39.29
30724;BME280;17473;52.286;20.930;2022-07-10T06:22:19;100043.72;;;25.07;40.11
30724;BME280;17473;52.286;20.930;2022-07-10T06:25:03;100040.78;;;23.88;42.05
30724;BME280;17473;52.286;20.930;2022-07-10T06:27:32;100039.09;;;23.84;42.56
30724;BME280;17473;52.286;20.930;2022-07-10T06:30:00;100034.25;;;23.99;42.18
30724;BME280;17473;52.286;20.930;2022-07-10T06:32:27;100034.59;;;23.85;42.56
30724;BME280;17473;52.286;20.930;2022-07-10T06:34:55;100023.84;;;23.83;42.85
30724;BME280;17473;52.286;20.930;2022-07-10T06:37:22;100034.00;;;24.08;42.96
30724;BME280;17473;52.286;20.930;2022-07-10T06:39:49;100027.88;;;24.01;43.16
30724;BME280;17473;52.286;20.930;2022-07-10T06:42:16;100032.41;;;24.01;43.70
30724;BME280;17473;52.286;20.930;2022-07-10T06:44:44;100032.06;;;24.76;42.34
30724;BME280;17473;52.286;20.930;2022-07-10T06:47:13;100033.50;;;25.45;40.78
30724;BME280;17473;52.286;20.930;2022-07-10T06:50:00;100024.75;;;25.90;39.75
30724;BME280;17473;52.286;20.930;2022-07-10T06:52:27;100030.09;;;25.92;39.61
30724;BME280;17473;52.286;20.930;2022-07-10T06:54:54;100035.72;;;25.32;40.65
30724;BME280;17473;52.286;20.930;2022-07-10T06:57:21;100035.03;;;24.97;41.48
30724;BME280;17473;52.286;20.930;2022-07-10T06:59:48;100037.28;;;24.82;41.88
30724;BME280;17473;52.286;20.930;2022-07-10T07:02:16;100032.69;;;24.54;42.41
30724;BME280;17473;52.286;20.930;2022-07-10T07:04:43;100030.06;;;24.20;42.77
30724;BME280;17473;52.286;20.930;2022-07-10T07:07:15;100033.66;;;23.86;43.11
30724;BME280;17473;52.286;20.930;2022-07-10T07:09:50;100034.31;;;23.97;42.94
30724;BME280;17473;52.286;20.930;2022-07-10T07:12:17;100031.66;;;24.27;41.93
30724;BME280;17473;52.286;20.930;2022-07-10T07:14:45;100034.09;;;24.36;41.99
30724;BME280;17473;52.286;20.930;2022-07-10T07:17:12;100042.13;;;24.71;41.77
30724;BME280;17473;52.286;20.930;2022-07-10T07:19:41;100042.50;;;25.99;39.57
30724;BME280;17473;52.286;20.930;2022-07-10T07:22:27;100037.25;;;28.43;35.03
30724;BME280;17473;52.286;20.930;2022-07-10T07:25:13;100030.53;;;27.25;36.16
30724;BME280;17473;52.286;20.930;2022-07-10T07:27:40;100028.75;;;26.31;37.28
30724;BME280;17473;52.286;20.930;2022-07-10T07:30:10;100027.41;;;25.67;38.43
30724;BME280;17473;52.286;20.930;2022-07-10T07:32:38;100033.16;;;24.99;39.63
30724;BME280;17473;52.286;20.930;2022-07-10T07:35:07;100020.19;;;24.82;40.41
30724;BME280;17473;52.286;20.930;2022-07-10T07:37:45;100023.53;;;24.60;41.08
30724;BME280;17473;52.286;20.930;2022-07-10T07:40:15;100023.28;;;24.69;40.82
30724;BME280;17473;52.286;20.930;2022-07-10T07:42:43;100018.19;;;25.17;40.71
30724;BME280;17473;52.286;20.930;2022-07-10T07:45:10;100019.16;;;25.14;40.80
30724;BME280;17473;52.286;20.930;2022-07-10T07:47:53;100007.34;;;25.47;39.97
30724;BME280;17473;52.286;20.930;2022-07-10T07:50:26;100011.25;;;25.90;39.56
30724;BME280;17473;52.286;20.930;2022-07-10T07:52:53;100005.78;;;25.67;39.54
30724;BME280;17473;52.286;20.930;2022-07-10T07:55:22;100004.41;;;25.53;39.56
30724;BME280;17473;52.286;20.930;2022-07-10T07:57:52;100005.72;;;25.13;39.95
30724;BME280;17473;52.286;20.930;2022-07-10T08:00:25;100002.41;;;24.75;40.69
30724;BME280;17473;52.286;20.930;2022-07-10T08:02:54;100006.16;;;24.99;40.53
30724;BME280;17473;52.286;20.930;2022-07-10T08:05:22;100001.81;;;25.77;39.03
30724;BME280;17473;52.286;20.930;2022-07-10T08:07:57;100004.59;;;27.62;35.67
30724;BME280;17473;52.286;20.930;2022-07-10T08:10:27;100009.94;;;27.43;35.48
30724;BME280;17473;52.286;20.930;2022-07-10T08:12:54;100014.00;;;26.39;36.11
30724;BME280;17473;52.286;20.930;2022-07-10T08:15:22;100013.03;;;25.65;37.15
30724;BME280;17473;52.286;20.930;2022-07-10T08:17:57;100020.44;;;25.03;38.06
30724;BME280;17473;52.286;20.930;2022-07-10T08:20:26;100033.41;;;24.60;39.08
30724;BME280;17473;52.286;20.930;2022-07-10T08:22:53;100025.63;;;23.84;42.13
30724;BME280;17473;52.286;20.930;2022-07-10T08:25:27;100029.03;;;23.56;43.68
30724;BME280;17473;52.286;20.930;2022-07-10T08:27:54;100027.03;;;23.28;44.52
30724;BME280;17473;52.286;20.930;2022-07-10T08:30:25;100025.88;;;23.00;46.10
30724;BME280;17473;52.286;20.930;2022-07-10T08:32:52;100023.16;;;23.01;47.04
30724;BME280;17473;52.286;20.930;2022-07-10T08:35:20;100026.88;;;23.35;46.31
30724;BME280;17473;52.286;20.930;2022-07-10T08:37:47;100022.00;;;23.49;46.11
30724;BME280;17473;52.286;20.930;2022-07-10T08:40:15;100026.22;;;23.25;46.87
30724;BME280;17473;52.286;20.930;2022-07-10T08:42:43;100011.97;;;23.57;45.79
30724;BME280;17473;52.286;20.930;2022-07-10T08:45:13;100012.91;;;23.89;44.73
30724;BME280;17473;52.286;20.930;2022-07-10T08:47:41;100019.00;;;25.47;41.07
30724;BME280;17473;52.286;20.930;2022-07-10T08:50:36;100021.41;;;26.82;38.84
30724;BME280;17473;52.286;20.930;2022-07-10T08:53:18;100020.59;;;27.48;37.37
30724;BME280;17473;52.286;20.930;2022-07-10T08:55:48;100009.44;;;27.33;36.52
30724;BME280;17473;52.286;20.930;2022-07-10T08:58:15;100007.22;;;28.27;35.44
30724;BME280;17473;52.286;20.930;2022-07-10T09:00:44;100005.59;;;28.23;34.87
30724;BME280;17473;52.286;20.930;2022-07-10T09:03:11;99996.38;;;28.07;34.28
30724;BME280;17473;52.286;20.930;2022-07-10T09:05:38;100002.41;;;27.72;34.37
30724;BME280;17473;52.286;20.930;2022-07-10T09:08:25;99997.03;;;27.28;35.58
30724;BME280;17473;52.286;20.930;2022-07-10T09:11:17;100011.28;;;26.63;36.47
30724;BME280;17473;52.286;20.930;2022-07-10T09:13:55;100008.56;;;26.16;36.74
30724;BME280;17473;52.286;20.930;2022-07-10T09:16:28;100007.78;;;26.85;35.63
30724;BME280;17473;52.286;20.930;2022-07-10T09:18:56;100001.22;;;27.57;34.27
30724;BME280;17473;52.286;20.930;2022-07-10T09:21:23;100007.34;;;28.24;33.50
30724;BME280;17473;52.286;20.930;2022-07-10T09:23:59;99995.81;;;28.97;32.04
30724;BME280;17473;52.286;20.930;2022-07-10T09:26:30;99995.56;;;28.05;32.18
30724;BME280;17473;52.286;20.930;2022-07-10T09:29:09;99998.44;;;27.37;32.68
30724;BME280;17473;52.286;20.930;2022-07-10T09:31:56;99992.00;;;26.49;33.89
30724;BME280;17473;52.286;20.930;2022-07-10T09:37:26;99989.25;;;25.21;36.07
30724;BME280;17473;52.286;20.930;2022-07-10T09:40:04;100004.88;;;25.11;36.33
30724;BME280;17473;52.286;20.930;2022-07-10T09:47:41;100001.25;;;24.52;36.51
30724;BME280;17473;52.286;20.930;2022-07-10T09:50:23;100006.53;;;24.25;36.93
30724;BME280;17473;52.286;20.930;2022-07-10T09:52:54;99998.28;;;24.31;37.07
30724;BME280;17473;52.286;20.930;2022-07-10T09:55:24;99997.03;;;24.43;36.76
30724;BME280;17473;52.286;20.930;2022-07-10T09:58:11;100004.91;;;24.81;36.05
30724;BME280;17473;52.286;20.930;2022-07-10T10:00:40;99997.59;;;24.84;36.48
30724;BME280;17473;52.286;20.930;2022-07-10T10:03:10;100006.09;;;24.72;36.55
30724;BME280;17473;52.286;20.930;2022-07-10T10:05:55;99997.94;;;24.74;35.76
30724;BME280;17473;52.286;20.930;2022-07-10T10:08:32;99988.97;;;25.02;35.21
30724;BME280;17473;52.286;20.930;2022-07-10T10:11:03;99990.09;;;25.23;34.83
30724;BME280;17473;52.286;20.930;2022-07-10T10:13:31;99989.03;;;25.55;33.98
30724;BME280;17473;52.286;20.930;2022-07-10T10:16:02;99992.00;;;25.47;33.99
30724;BME280;17473;52.286;20.930;2022-07-10T10:18:29;99984.53;;;26.06;33.72
30724;BME280;17473;52.286;20.930;2022-07-10T10:20:56;99988.03;;;26.34;33.27
30724;BME280;17473;52.286;20.930;2022-07-10T10:23:25;100001.88;;;26.26;31.99
30724;BME280;17473;52.286;20.930;2022-07-10T10:25:55;99998.16;;;26.52;32.05
30724;BME280;17473;52.286;20.930;2022-07-10T10:28:24;99995.09;;;26.62;31.39
30724;BME280;17473;52.286;20.930;2022-07-10T10:30:59;99999.53;;;26.88;32.14
30724;BME280;17473;52.286;20.930;2022-07-10T10:33:41;100000.97;;;26.49;33.35
30724;BME280;17473;52.286;20.930;2022-07-10T10:36:12;99996.41;;;26.28;33.53
30724;BME280;17473;52.286;20.930;2022-07-10T10:41:28;99997.69;;;26.17;34.20
30724;BME280;17473;52.286;20.930;2022-07-10T10:46:35;99995.81;;;26.67;34.27
30724;BME280;17473;52.286;20.930;2022-07-10T10:49:21;99994.28;;;26.12;35.16
30724;BME280;17473;52.286;20.930;2022-07-10T10:52:09;99995.41;;;26.30;35.17
30724;BME280;17473;52.286;20.930;2022-07-10T10:57:36;99991.22;;;25.96;35.66
30724;BME280;17473;52.286;20.930;2022-07-10T11:00:07;99999.69;;;26.36;35.46
30724;BME280;17473;52.286;20.930;2022-07-10T11:02:37;99992.50;;;26.11;35.55
30724;BME280;17473;52.286;20.930;2022-07-10T11:10:48;99986.59;;;26.25;34.30
30724;BME280;17473;52.286;20.930;2022-07-10T11:13:17;99989.97;;;26.05;33.24
30724;BME280;17473;52.286;20.930;2022-07-10T11:15:48;99977.91;;;25.90;33.52
30724;BME280;17473;52.286;20.930;2022-07-10T11:18:20;99986.09;;;26.37;32.52
30724;BME280;17473;52.286;20.930;2022-07-10T11:20:53;99977.94;;;26.63;32.25
30724;BME280;17473;52.286;20.930;2022-07-10T11:24:05;99975.31;;;26.60;32.29
30724;BME280;17473;52.286;20.930;2022-07-10T11:29:43;99980.94;;;26.31;32.19
30724;BME280;17473;52.286;20.930;2022-07-10T11:32:20;99971.34;;;26.46;32.42
30724;BME280;17473;52.286;20.930;2022-07-10T11:34:47;99961.19;;;26.53;32.59
30724;BME280;17473;52.286;20.930;2022-07-10T11:37:16;99948.31;;;26.82;32.24
30724;BME280;17473;52.286;20.930;2022-07-10T11:39:43;99958.28;;;26.81;32.70
30724;BME280;17473;52.286;20.930;2022-07-10T11:42:10;99948.75;;;27.15;32.47
30724;BME280;17473;52.286;20.930;2022-07-10T11:44:37;99952.56;;;26.89;33.10
30724;BME280;17473;52.286;20.930;2022-07-10T11:47:05;99944.22;;;26.71;33.79
30724;BME280;17473;52.286;20.930;2022-07-10T11:49:34;99945.78;;;26.77;33.91
30724;BME280;17473;52.286;20.930;2022-07-10T11:52:03;99954.91;;;26.98;33.42
30724;BME280;17473;52.286;20.930;2022-07-10T11:54:30;99964.75;;;26.77;33.71
30724;BME280;17473;52.286;20.930;2022-07-10T11:57:05;99958.69;;;26.70;33.52
30724;BME280;17473;52.286;20.930;2022-07-10T11:59:33;99959.91;;;26.62;34.40
30724;BME280;17473;52.286;20.930;2022-07-10T12:02:00;99975.63;;;26.76;33.49
30724;BME280;17473;52.286;20.930;2022-07-10T12:04:31;99974.44;;;26.83;33.09
30724;BME280;17473;52.286;20.930;2022-07-10T12:06:58;99976.59;;;26.51;33.33
30724;BME280;17473;52.286;20.930;2022-07-10T12:09:25;99974.41;;;26.13;33.66
30724;BME280;17473;52.286;20.930;2022-07-10T12:12:04;99981.31;;;25.95;33.39
30724;BME280;17473;52.286;20.930;2022-07-10T12:14:32;99979.53;;;25.69;33.74
30724;BME280;17473;52.286;20.930;2022-07-10T12:17:00;99977.50;;;25.75;33.74
30724;BME280;17473;52.286;20.930;2022-07-10T12:19:30;99987.66;;;25.69;34.35
30724;BME280;17473;52.286;20.930;2022-07-10T12:21:59;99994.81;;;25.44;36.02
30724;BME280;17473;52.286;20.930;2022-07-10T12:24:28;99996.69;;;25.14;37.63
30724;BME280;17473;52.286;20.930;2022-07-10T12:26:56;100010.28;;;24.82;38.31
30724;BME280;17473;52.286;20.930;2022-07-10T12:29:28;100007.03;;;24.40;39.38
30724;BME280;17473;52.286;20.930;2022-07-10T12:32:00;100016.00;;;24.09;42.44
30724;BME280;17473;52.286;20.930;2022-07-10T12:34:40;100024.72;;;23.49;46.60
30724;BME280;17473;52.286;20.930;2022-07-10T12:37:11;100014.31;;;23.70;48.10
30724;BME280;17473;52.286;20.930;2022-07-10T12:39:50;100011.78;;;23.27;49.52
30724;BME280;17473;52.286;20.930;2022-07-10T12:42:30;99994.03;;;23.19;50.30
30724;BME280;17473;52.286;20.930;2022-07-10T12:45:14;99992.50;;;22.69;51.84
30724;BME280;17473;52.286;20.930;2022-07-10T12:47:48;99992.78;;;22.96;52.13
30724;BME280;17473;52.286;20.930;2022-07-10T12:50:17;99994.94;;;22.80;53.47
30724;BME280;17473;52.286;20.930;2022-07-10T12:52:45;99995.53;;;23.32;51.38
30724;BME280;17473;52.286;20.930;2022-07-10T12:55:19;99995.25;;;23.78;49.89
30724;BME280;17473;52.286;20.930;2022-07-10T12:57:59;99997.75;;;24.18;48.26
30724;BME280;17473;52.286;20.930;2022-07-10T13:00:34;99990.91;;;23.72;50.88
30724;BME280;17473;52.286;20.930;2022-07-10T13:03:07;100002.06;;;23.91;51.25
30724;BME280;17473;52.286;20.930;2022-07-10T13:05:42;99998.16;;;24.04;50.73
30724;BME280;17473;52.286;20.930;2022-07-10T13:10:49;99999.38;;;23.91;49.68
30724;BME280;17473;52.286;20.930;2022-07-10T13:13:16;100013.56;;;23.63;49.46
30724;BME280;17473;52.286;20.930;2022-07-10T13:15:44;100032.81;;;23.10;50.96
30724;BME280;17473;52.286;20.930;2022-07-10T13:18:22;100052.59;;;22.68;52.24
30724;BME280;17473;52.286;20.930;2022-07-10T13:20:52;100046.88;;;21.93;54.04
30724;BME280;17473;52.286;20.930;2022-07-10T13:23:26;100053.72;;;21.61;55.76